Airfield :
LOGIN :

Register | Disclaimer

   EN    FR    IT 

 










Legend :    VFR   Marginal VFR   IFR   Intensive IFR   Very Intensive IFR
Visi :
Ceiling :
>= 8 km
>= 3000ft
5 to 8 km
1000 to 3000 ft
1500m to 5 km
500 to 1000 ft
800 to 1500m
200 to 500 ft
< 800m
< 200 ft
Symbols :   Thunderstorms  Fog  Heavy snow  Heavy precipitations  Wind > 20 kt
SIGMETs :     Misc.  Thunderstorms  Icing  Turbulence  Mountain Waves  Volcanic Ashes






- Airport Elevation : 1460 ft


LSMA - Alpnach

CURRENT METAR :
  • 130820Z AUTO 06005KT 020V080 9999NDV FEW013 BKN034 OVC046 16/14 Q1016 RMK

EXPIRED METARs :
  • 130750Z AUTO 03005KT 350V060 9999NDV DZ FEW011 SCT018 OVC046 15/14 Q1016 RMK
  • 130720Z AUTO 05008KT 020V080 2600NDV -SHRA BR SCT014 BKN027 OVC047 15/14 Q1016 RMK
  • 130650Z AUTO 05010KT 6000NDV -SHRA FEW014 BKN016 OVC045 15/14 Q1016 RMK
  • 130620Z AUTO 05009KT 010V070 9999NDV SCT012 SCT015 OVC028 15/14 Q1016 RMK
  • 130550Z AUTO 07008KT 9999NDV -SHRA FEW005 SCT014 OVC028 15/14 Q1015 RMK
  • 130520Z AUTO 08009KT 040V110 9999NDV -RA SCT012 BKN030 OVC045 15/14 Q1015 RMK
  • 130450Z AUTO 07011KT 040V100 9999NDV SCT013 BKN026 OVC034 15/13 Q1015 RMK
  • 130420Z AUTO 05010KT 360V080 9999NDV FEW011 SCT013 OVC015 16/14 Q1015 RMK
  • 130350Z AUTO 06009KT 020V080 9999NDV -SHRA FEW008 SCT011 OVC019 16/15 Q1015 RMK

Expired Forecast.



MET'MAP, your aeronautical weather chart ! - Copyright ORBIFLY December 2007 - Disclaimer

ORBIFLY MET'MAP TEAM :

Programming & Development : Alexandra Zaïnal
Original concept : Baudouin d'Aumeries
Technical & hardware support : Manuel Goepfert
Assistance : Marc-Olivier Méhu




SOURCES & CREDITS :

   NOAA